Time;durP1;ratioP1;P1;durP2;ratioP2;P2;SDS_P1;SDS_P2;PMS_P1;PMS_P2;Temp;Humidity;BMP_temperature;BMP_pressure;BME280_temperature;BME280_humidity;BME280_pressure;Samples;Min_cycle;Max_cycle;Signal;HPM_P1;HPM_P2
2021/01/23 00:02:08;;;;;;;8.80;4.85;;;;;;;9.31;67.02;99574.31;5038959;28;20029;-84
2021/01/23 00:04:33;;;;;;;7.40;5.47;;;;;;;9.21;67.48;99560.50;5021142;28;20098;-82
2021/01/23 00:06:59;;;;;;;10.00;7.50;;;;;;;9.28;66.90;99572.00;5038375;28;20120;-79
2021/01/23 00:09:24;;;;;;;6.93;5.07;;;;;;;9.27;66.74;99569.56;5020946;28;20090;-78
2021/01/23 00:11:50;;;;;;;6.15;4.47;;;;;;;9.24;66.65;99560.16;5038638;28;20029;-80
2021/01/23 00:14:15;;;;;;;6.70;5.22;;;;;;;9.23;66.93;99555.91;5038359;28;20100;-83
2021/01/23 00:16:42;;;;;;;8.05;5.38;;;;;;;9.13;67.01;99540.28;5020889;28;20347;-84
2021/01/23 00:19:07;;;;;;;7.65;5.03;;;;;;;9.02;66.75;99526.66;5020753;28;20044;-81
2021/01/23 00:21:32;;;;;;;6.65;4.65;;;;;;;8.97;67.04;99518.44;5020912;28;20033;-81
2021/01/23 00:23:58;;;;;;;5.80;3.50;;;;;;;9.17;66.97;99569.75;5020776;28;20064;-83
2021/01/23 00:26:23;;;;;;;6.15;3.38;;;;;;;9.26;66.70;99568.72;5038152;28;20033;-84
2021/01/23 00:28:48;;;;;;;7.10;4.80;;;;;;;8.87;66.44;99494.88;5038204;28;20029;-82
2021/01/23 00:31:14;;;;;;;9.82;4.90;;;;;;;9.03;66.59;99531.75;5038162;28;20064;-82
2021/01/23 00:33:40;;;;;;;5.38;3.92;;;;;;;9.15;66.89;99546.19;5038174;28;20458;-85
2021/01/23 00:36:06;;;;;;;6.07;4.70;;;;;;;8.52;66.53;99446.09;5037186;28;20499;-77
2021/01/23 00:38:31;;;;;;;8.07;5.40;;;;;;;9.10;66.06;99561.69;5020432;28;20037;-80
2021/01/23 00:40:57;;;;;;;6.72;4.53;;;;;;;8.88;66.95;99539.47;5038300;28;20025;-82
2021/01/23 00:43:22;;;;;;;6.82;4.80;;;;;;;8.82;66.63;99545.41;5037800;28;20087;-82
2021/01/23 00:45:48;;;;;;;9.27;6.47;;;;;;;8.73;66.77;99542.97;5020307;28;20029;-82
2021/01/23 00:48:13;;;;;;;9.25;7.20;;;;;;;8.37;66.86;99481.97;5020152;28;20033;-85
2021/01/23 00:50:40;;;;;;;8.52;6.35;;;;;;;8.68;67.36;99532.94;5038020;28;20025;-81
2021/01/23 00:53:05;;;;;;;7.88;5.60;;;;;;;8.68;66.87;99540.00;5037502;28;20037;-80
2021/01/23 00:55:31;;;;;;;7.22;5.25;;;;;;;8.67;66.94;99543.63;5020184;28;20030;-80
2021/01/23 00:57:57;;;;;;;8.02;5.65;;;;;;;8.21;66.97;99464.34;5037714;28;20033;-78
2021/01/23 01:00:22;;;;;;;8.57;6.20;;;;;;;8.26;66.77;99478.66;5037508;28;20112;-78
2021/01/23 01:02:48;;;;;;;11.60;6.88;;;;;;;8.25;67.16;99479.63;5037637;28;20040;-80
2021/01/23 01:05:13;;;;;;;9.77;6.90;;;;;;;8.11;67.08;99477.63;5037513;28;20347;-79
2021/01/23 01:07:39;;;;;;;12.23;7.63;;;;;;;8.25;67.31;99507.75;5037376;28;20134;-78
2021/01/23 01:10:05;;;;;;;11.95;8.55;;;;;;;8.22;67.52;99508.91;5036148;28;20026;-84
2021/01/23 01:12:30;;;;;;;13.60;8.50;;;;;;;8.08;67.17;99519.22;5037641;28;20026;-82
2021/01/23 01:14:56;;;;;;;12.65;8.00;;;;;;;8.09;67.08;99503.28;5037521;28;20039;-84
2021/01/23 01:17:21;;;;;;;16.20;10.37;;;;;;;7.90;67.72;99472.03;5037339;28;20340;-81
2021/01/23 01:19:46;;;;;;;15.70;9.27;;;;;;;7.59;67.76;99422.72;5037279;28;20133;-79
2021/01/23 01:22:12;;;;;;;17.38;11.35;;;;;;;8.02;67.50;99496.19;5037124;28;20313;-82
2021/01/23 01:24:37;;;;;;;18.17;11.23;;;;;;;8.18;67.80;99535.69;5037124;28;20040;-81
2021/01/23 01:27:03;;;;;;;18.85;12.60;;;;;;;8.15;67.38;99531.56;5019569;28;20037;-83
2021/01/23 01:29:28;;;;;;;19.40;13.18;;;;;;;8.16;67.48;99522.69;5037063;28;20391;-80
2021/01/23 01:31:54;;;;;;;19.23;13.60;;;;;;;8.15;67.92;99526.28;5037131;28;20032;-80
2021/01/23 01:34:19;;;;;;;19.57;12.97;;;;;;;7.81;67.70;99475.63;5036857;28;20127;-84
2021/01/23 01:36:44;;;;;;;16.37;12.10;;;;;;;8.07;67.88;99520.19;5037045;28;20416;-84
2021/01/23 01:39:10;;;;;;;21.13;12.60;;;;;;;8.04;67.75;99520.53;5036763;28;20035;-81
2021/01/23 01:41:37;;;;;;;17.88;11.50;;;;;;;7.74;68.11;99479.91;5036699;28;20040;-80
2021/01/23 01:44:03;;;;;;;16.70;10.93;;;;;;;7.98;67.88;99500.97;5036755;28;20021;-81
2021/01/23 01:46:29;;;;;;;14.27;9.50;;;;;;;7.97;67.63;99494.88;5036812;28;20391;-81
2021/01/23 01:48:56;;;;;;;14.98;11.55;;;;;;;7.80;67.97;99466.09;5036819;28;20036;-81
2021/01/23 01:51:21;;;;;;;14.75;10.07;;;;;;;7.89;68.29;99481.72;5038602;28;20458;-81
2021/01/23 01:53:47;;;;;;;14.77;9.80;;;;;;;7.81;68.23;99479.09;5036684;28;20025;-80
2021/01/23 01:56:12;;;;;;;13.93;9.67;;;;;;;7.81;68.27;99465.13;5018975;28;20025;-81
2021/01/23 01:58:38;;;;;;;12.50;9.00;;;;;;;7.60;68.26;99424.38;5036811;28;20113;-86
2021/01/23 02:01:03;;;;;;;12.73;8.70;;;;;;;8.08;67.90;99488.47;5036589;28;20029;-84
2021/01/23 02:03:41;;;;;;;10.60;7.00;;;;;;;8.14;68.81;99490.47;5036356;28;20021;-81
2021/01/23 02:06:19;;;;;;;8.00;6.00;;;;;;;8.28;68.24;99496.91;5018762;28;20091;-80
2021/01/23 02:09:18;;;;;;;6.75;4.85;;;;;;;8.42;69.18;99493.66;5018633;28;20061;-79
2021/01/23 02:12:04;;;;;;;6.15;4.35;;;;;;;8.63;69.04;99490.50;5018760;28;20160;-79
2021/01/23 02:14:49;;;;;;;5.88;5.10;;;;;;;8.78;69.13;99488.81;5018607;28;20033;-82
2021/01/23 02:17:16;;;;;;;8.13;5.17;;;;;;;8.91;68.93;99480.41;5036070;28;20034;-80
2021/01/23 02:20:02;;;;;;;8.77;5.28;;;;;;;9.05;68.97;99485.00;5036276;28;20102;-81
2021/01/23 02:22:47;;;;;;;4.80;4.30;;;;;;;9.18;69.54;99484.47;5018221;28;20025;-78
2021/01/23 02:25:16;;;;;;;7.30;4.75;;;;;;;9.32;68.88;99488.19;5035898;28;20025;-80
2021/01/23 02:28:06;;;;;;;5.60;4.18;;;;;;;9.41;69.18;99476.63;5035836;28;20025;-81
2021/01/23 02:30:45;;;;;;;8.65;4.80;;;;;;;9.45;69.42;99472.66;5018353;28;20030;-83
2021/01/23 02:33:12;;;;;;;6.10;4.28;;;;;;;9.41;69.06;99479.25;5035863;28;20034;-83
2021/01/23 02:35:41;;;;;;;6.43;4.30;;;;;;;9.51;69.10;99477.22;5035817;28;20061;-83
2021/01/23 02:38:07;;;;;;;7.13;4.43;;;;;;;9.59;69.18;99479.00;5017972;28;20027;-86
2021/01/23 02:40:33;;;;;;;7.43;4.30;;;;;;;9.63;69.37;99475.03;5035703;28;20408;-78
2021/01/23 02:42:58;;;;;;;6.22;4.45;;;;;;;9.65;69.45;99483.56;5035650;28;20111;-81
2021/01/23 02:45:23;;;;;;;5.78;3.92;;;;;;;9.66;69.07;99488.69;5035588;28;20052;-80
2021/01/23 02:47:49;;;;;;;8.52;3.95;;;;;;;9.46;69.20;99450.56;5035683;28;20025;-83
2021/01/23 02:50:14;;;;;;;7.82;4.18;;;;;;;9.64;69.10;99466.13;5017951;28;20347;-80
2021/01/23 02:52:55;;;;;;;4.75;3.65;;;;;;;9.72;69.53;99474.81;5035620;28;20029;-82
2021/01/23 02:55:23;;;;;;;7.18;3.90;;;;;;;9.31;69.30;99405.69;5035474;28;20034;-77
2021/01/23 02:57:52;;;;;;;6.53;4.07;;;;;;;9.17;69.08;99399.34;5035609;28;20408;-78
2021/01/23 03:00:19;;;;;;;5.22;3.92;;;;;;;9.72;69.11;99469.56;5035435;28;20383;-77
2021/01/23 03:02:52;;;;;;;8.63;4.25;;;;;;;9.61;69.97;99467.28;5035240;28;20029;-79
2021/01/23 03:05:18;;;;;;;8.20;4.07;;;;;;;9.70;69.14;99476.00;5035530;28;20427;-80
2021/01/23 03:07:45;;;;;;;6.07;4.43;;;;;;;9.73;69.53;99470.38;5035006;28;20063;-83
2021/01/23 03:10:11;;;;;;;6.15;4.10;;;;;;;9.12;69.30;99369.25;5035119;28;20041;-79
2021/01/23 03:12:37;;;;;;;6.28;4.32;;;;;;;9.39;69.24;99410.09;5035124;28;20018;-79
2021/01/23 03:15:04;;;;;;;5.70;4.10;;;;;;;9.75;69.08;99471.03;5017546;28;20343;-81
2021/01/23 03:17:29;;;;;;;5.78;4.20;;;;;;;9.62;69.22;99449.66;5034934;28;20067;-82
2021/01/23 03:19:55;;;;;;;7.13;4.65;;;;;;;9.69;68.93;99463.81;5017486;28;20056;-78
2021/01/23 03:22:20;;;;;;;8.05;4.95;;;;;;;9.46;68.83;99429.47;5034852;28;20051;-81
2021/01/23 03:24:46;;;;;;;6.88;5.60;;;;;;;9.64;68.91;99452.94;5035048;28;20036;-83
2021/01/23 03:27:11;;;;;;;6.88;4.95;;;;;;;9.64;68.62;99480.13;5034979;28;20032;-82
2021/01/23 03:29:37;;;;;;;4.57;3.72;;;;;;;9.61;68.67;99455.91;5035008;28;20048;-79
2021/01/23 03:32:02;;;;;;;7.47;5.45;;;;;;;9.46;68.65;99448.75;5034928;28;20029;-82
2021/01/23 03:34:28;;;;;;;7.55;5.28;;;;;;;9.52;68.64;99452.50;5034180;28;20025;-81
2021/01/23 03:36:53;;;;;;;7.28;6.15;;;;;;;9.13;68.76;99405.94;5034733;28;20464;-80
2021/01/23 03:39:19;;;;;;;9.00;6.60;;;;;;;8.97;68.70;99384.97;5017044;28;20037;-81
2021/01/23 03:41:44;;;;;;;8.43;5.68;;;;;;;8.81;69.14;99369.19;5017115;28;20030;-81
2021/01/23 03:44:10;;;;;;;10.52;6.22;;;;;;;9.10;68.96;99422.09;5034676;28;20048;-80
2021/01/23 03:46:35;;;;;;;7.90;5.45;;;;;;;8.71;69.35;99377.31;5034687;28;20068;-82
2021/01/23 03:49:00;;;;;;;7.55;5.75;;;;;;;9.04;69.57;99429.84;5034804;28;20097;-81
2021/01/23 03:51:26;;;;;;;8.15;5.53;;;;;;;9.00;69.70;99429.38;5034617;28;20029;-80
2021/01/23 03:53:52;;;;;;;7.18;5.70;;;;;;;8.94;69.51;99430.06;5034543;28;20416;-79
2021/01/23 03:56:17;;;;;;;8.10;5.72;;;;;;;8.61;69.37;99389.84;5034534;28;20025;-80
2021/01/23 03:58:43;;;;;;;9.68;6.20;;;;;;;8.77;69.25;99425.81;5034605;28;20091;-79
2021/01/23 04:01:08;;;;;;;10.60;6.50;;;;;;;8.44;69.75;99388.25;5016867;28;20032;-77
2021/01/23 04:03:34;;;;;;;9.38;6.78;;;;;;;8.79;69.64;99422.03;5034514;28;20033;-78
2021/01/23 04:05:59;;;;;;;8.50;6.70;;;;;;;8.79;69.71;99426.47;5034534;28;20033;-79
2021/01/23 04:08:24;;;;;;;9.73;6.60;;;;;;;8.75;69.62;99441.78;5034214;28;20029;-81
2021/01/23 04:10:50;;;;;;;8.95;6.88;;;;;;;8.39;69.45;99372.13;5034453;28;20045;-82
2021/01/23 04:13:15;;;;;;;8.95;5.82;;;;;;;8.14;69.05;99345.00;5016858;28;20125;-79
2021/01/23 04:15:41;;;;;;;10.80;7.13;;;;;;;8.62;69.79;99423.06;5034490;28;20352;-79
2021/01/23 04:18:06;;;;;;;7.97;7.00;;;;;;;8.21;69.81;99359.97;5034416;28;20057;-77
2021/01/23 04:20:32;;;;;;;10.02;6.72;;;;;;;8.49;69.58;99409.59;5034275;28;20025;-81
2021/01/23 04:22:58;;;;;;;8.75;6.15;;;;;;;8.60;69.35;99410.06;5034234;28;20033;-76
2021/01/23 04:25:24;;;;;;;9.98;7.03;;;;;;;8.62;69.46;99415.16;5034067;28;20029;-80
2021/01/23 04:27:49;;;;;;;8.75;6.93;;;;;;;8.57;69.42;99399.06;5016757;28;20037;-78
2021/01/23 04:30:15;;;;;;;9.02;6.18;;;;;;;8.38;69.53;99370.50;5016727;28;20033;-81
2021/01/23 04:32:40;;;;;;;8.88;7.15;;;;;;;8.03;69.48;99314.63;5034453;28;20079;-77
2021/01/23 04:35:11;;;;;;;9.20;7.47;;;;;;;7.94;69.64;99308.56;5034283;28;20029;-78
2021/01/23 04:37:38;;;;;;;10.43;7.82;;;;;;;8.56;69.56;99413.22;5034393;28;20057;-77
2021/01/23 04:40:06;;;;;;;11.75;6.95;;;;;;;8.42;69.60;99398.94;5034000;28;20037;-77
2021/01/23 04:42:31;;;;;;;6.97;5.90;;;;;;;7.95;69.46;99330.41;5033974;28;20398;-80
2021/01/23 04:44:57;;;;;;;10.70;7.90;;;;;;;7.96;69.86;99345.19;5018418;28;20037;-77
2021/01/23 04:47:22;;;;;;;13.32;7.50;;;;;;;7.80;69.84;99332.88;5037793;28;20033;-81
2021/01/23 04:49:48;;;;;;;8.15;7.28;;;;;;;7.83;70.01;99334.38;5038046;28;20029;-77
2021/01/23 04:52:14;;;;;;;11.45;7.90;;;;;;;8.30;70.10;99426.53;5020269;28;20343;-78
2021/01/23 04:54:42;;;;;;;13.15;8.38;;;;;;;8.15;70.24;99397.44;5020264;28;20082;-77
2021/01/23 04:57:08;;;;;;;10.68;7.68;;;;;;;8.23;70.09;99415.03;5037733;28;20068;-82
2021/01/23 04:59:33;;;;;;;11.50;7.82;;;;;;;7.86;69.98;99349.81;5037647;28;20057;-77
2021/01/23 05:02:23;;;;;;;10.13;8.05;;;;;;;8.24;70.71;99412.25;5037721;28;20340;-86
2021/01/23 05:04:52;;;;;;;13.20;7.32;;;;;;;7.65;69.87;99305.63;5037797;28;20096;-89
2021/01/23 05:07:27;;;;;;;11.27;8.10;;;;;;;8.27;70.58;99404.03;5037427;28;20059;-85
2021/01/23 05:09:53;;;;;;;9.48;7.03;;;;;;;8.18;70.25;99386.63;5037728;28;20032;-83
2021/01/23 05:12:38;;;;;;;11.90;7.68;;;;;;;8.24;70.48;99390.38;5037381;28;20029;-85
2021/01/23 05:15:09;;;;;;;12.27;7.80;;;;;;;8.19;70.50;99388.25;5037587;28;20107;-85
2021/01/23 05:17:56;;;;;;;9.50;6.82;;;;;;;8.23;70.25;99384.31;5037339;28;20021;-83
2021/01/23 05:20:31;;;;;;;8.95;6.18;;;;;;;8.35;70.07;99390.06;5019643;28;20077;-85
2021/01/23 05:22:57;;;;;;;8.93;6.07;;;;;;;8.46;69.77;99386.25;5019664;28;20029;-86
2021/01/23 05:25:30;;;;;;;9.63;7.38;;;;;;;8.56;69.26;99384.25;5037146;28;20048;-85
2021/01/23 05:27:57;;;;;;;12.57;6.65;;;;;;;8.63;69.56;99385.22;5037124;28;20037;-83
2021/01/23 05:30:23;;;;;;;11.20;6.80;;;;;;;8.69;69.40;99404.78;5036930;28;20036;-86
2021/01/23 05:33:04;;;;;;;9.30;6.45;;;;;;;8.53;70.09;99355.66;5037861;28;20412;-85
2021/01/23 05:35:29;;;;;;;13.15;7.20;;;;;;;8.63;69.88;99368.63;5019894;28;20026;-87
2021/01/23 05:37:55;;;;;;;8.40;6.38;;;;;;;7.91;69.85;99244.97;5037157;28;20340;-87
2021/01/23 05:40:29;;;;;;;16.83;8.02;;;;;;;8.24;69.77;99291.25;5036814;28;20026;-86
2021/01/23 05:42:55;;;;;;;10.50;7.03;;;;;;;8.64;69.64;99349.19;5036942;28;20447;-81
2021/01/23 05:45:20;;;;;;;11.38;6.95;;;;;;;8.47;69.63;99308.97;5036619;28;20108;-86
2021/01/23 05:47:46;;;;;;;8.43;6.65;;;;;;;8.96;70.04;99379.88;5019288;28;20121;-81
2021/01/23 05:50:11;;;;;;;7.63;6.57;;;;;;;8.99;69.83;99377.72;5019075;28;20033;-87
2021/01/23 05:52:37;;;;;;;12.93;7.55;;;;;;;9.04;69.47;99374.56;5019252;28;20029;-85
2021/01/23 05:55:04;;;;;;;9.48;7.20;;;;;;;9.06;69.97;99381.28;5036612;28;20032;-85
2021/01/23 05:57:30;;;;;;;10.68;7.57;;;;;;;8.77;69.63;99331.88;5035878;28;20033;-83
2021/01/23 05:59:55;;;;;;;11.80;6.95;;;;;;;9.11;69.94;99380.78;5036473;28;20395;-85
2021/01/23 06:02:22;;;;;;;10.75;7.97;;;;;;;9.13;69.89;99371.72;5018772;28;20021;-83
2021/01/23 06:04:50;;;;;;;14.20;8.57;;;;;;;9.16;70.13;99375.81;5036771;28;20113;-86
2021/01/23 06:07:39;;;;;;;12.65;8.18;;;;;;;9.14;70.58;99365.44;5036190;28;20112;-85
2021/01/23 06:10:25;;;;;;;14.27;9.75;;;;;;;9.00;70.83;99334.59;5036501;28;20100;-84
2021/01/23 06:12:54;;;;;;;15.48;9.35;;;;;;;9.09;70.24;99338.81;5018795;28;20029;-86
2021/01/23 06:15:32;;;;;;;19.02;11.75;;;;;;;9.31;70.09;99370.63;5018696;28;20029;-83
2021/01/23 06:17:58;;;;;;;17.55;11.68;;;;;;;9.01;69.53;99311.69;5036387;28;20035;-81
2021/01/23 06:20:42;;;;;;;20.50;13.10;;;;;;;9.34;70.22;99368.47;5035944;28;20120;-84
2021/01/23 06:23:09;;;;;;;14.50;9.70;;;;;;;8.88;70.29;99286.72;5018495;28;20026;-86
2021/01/23 06:25:49;;;;;;;18.85;12.07;;;;;;;9.49;70.45;99350.06;5036273;28;20404;-86
2021/01/23 06:28:21;;;;;;;17.80;11.65;;;;;;;9.58;70.36;99346.38;5035950;28;20091;-85
2021/01/23 06:30:46;;;;;;;18.85;10.98;;;;;;;9.59;70.68;99334.84;5036277;28;20030;-87
2021/01/23 06:33:24;;;;;;;15.55;10.60;;;;;;;9.77;70.67;99338.03;5018459;28;20039;-89
2021/01/23 06:36:01;;;;;;;13.75;8.68;;;;;;;9.89;70.83;99338.41;5036121;28;20025;-82
2021/01/23 06:38:27;;;;;;;15.68;8.95;;;;;;;9.91;70.47;99323.22;5018074;28;20037;-85
2021/01/23 06:40:53;;;;;;;15.13;8.90;;;;;;;10.08;70.62;99330.00;5035984;28;20339;-82
2021/01/23 06:43:18;;;;;;;14.73;9.18;;;;;;;9.81;70.36;99277.84;5035644;28;20039;-85
2021/01/23 06:45:44;;;;;;;13.75;9.02;;;;;;;10.25;70.67;99332.50;5018306;28;20091;-86
2021/01/23 06:48:10;;;;;;;13.75;9.25;;;;;;;10.31;70.24;99331.78;5036100;28;20467;-85
2021/01/23 06:50:36;;;;;;;10.88;7.65;;;;;;;10.36;69.63;99332.84;5035514;28;20029;-82
2021/01/23 06:53:04;;;;;;;12.30;7.78;;;;;;;10.16;69.92;99310.63;5035618;28;20029;-83
2021/01/23 06:56:02;;;;;;;12.52;7.60;;;;;;;10.47;69.74;99345.63;5018008;28;20442;-83
2021/01/23 06:58:29;;;;;;;8.30;5.93;;;;;;;10.55;69.77;99357.91;4996368;28;20041;-88
2021/01/23 07:00:56;;;;;;;8.48;5.80;;;;;;;10.26;69.13;99290.09;5017886;28;20029;-85
2021/01/23 07:03:22;;;;;;;7.20;5.47;;;;;;;10.68;69.00;99365.19;5035409;28;20036;-85
2021/01/23 07:05:49;;;;;;;7.55;5.72;;;;;;;10.51;68.76;99335.53;5035320;28;20108;-84
2021/01/23 07:08:25;;;;;;;9.02;5.20;;;;;;;10.24;68.80;99289.47;5034312;28;20037;-87
2021/01/23 07:11:10;;;;;;;9.35;4.78;;;;;;;10.72;68.93;99359.38;5035487;28;20055;-85
2021/01/23 07:13:37;;;;;;;6.45;3.97;;;;;;;10.40;68.28;99301.66;5017822;28;20352;-88
2021/01/23 07:16:03;;;;;;;7.65;4.50;;;;;;;10.78;68.14;99363.09;5035375;28;20033;-81
2021/01/23 07:18:29;;;;;;;6.07;3.65;;;;;;;10.67;67.98;99343.25;5017506;28;20029;-86
2021/01/23 07:20:55;;;;;;;5.15;3.28;;;;;;;10.89;68.25;99364.44;5035188;28;20025;-83
2021/01/23 07:23:21;;;;;;;4.25;3.33;;;;;;;10.99;67.58;99359.69;5017535;28;20042;-84
2021/01/23 07:25:48;;;;;;;6.45;3.80;;;;;;;11.04;67.52;99355.50;5035118;28;20436;-81
2021/01/23 07:28:17;;;;;;;4.88;3.47;;;;;;;11.14;67.29;99352.56;5034944;28;20043;-89
2021/01/23 07:30:43;;;;;;;9.68;5.70;;;;;;;11.19;67.28;99352.84;5035163;28;20079;-85
2021/01/23 07:33:11;;;;;;;8.15;5.70;;;;;;;11.21;67.32;99356.13;5035004;28;20033;-85
2021/01/23 07:35:37;;;;;;;7.25;4.57;;;;;;;10.73;66.43;99275.69;5034725;28;20052;-85
2021/01/23 07:38:04;;;;;;;5.68;4.00;;;;;;;10.83;66.85;99258.53;5035229;28;20033;-88
2021/01/23 07:40:31;;;;;;;6.20;3.72;;;;;;;11.38;66.32;99346.94;5034761;28;20040;-85
2021/01/23 07:42:59;;;;;;;4.80;3.88;;;;;;;11.32;66.18;99323.91;5017201;28;20026;-80
2021/01/23 07:45:24;;;;;;;6.10;4.28;;;;;;;11.49;65.82;99347.47;5034613;28;20112;-84
2021/01/23 07:48:06;;;;;;;5.35;3.45;;;;;;;11.58;66.10;99344.50;5034712;28;20128;-84
2021/01/23 07:50:42;;;;;;;;;;;;;;;11.59;66.23;99348.78;5035146;28;20029;-86
2021/01/23 07:53:17;;;;;;;7.50;4.25;;;;;;;11.60;66.05;99347.78;5034794;28;20239;-81
2021/01/23 07:55:44;;;;;;;7.20;4.53;;;;;;;11.74;65.54;99356.66;5017114;28;20030;-81
2021/01/23 07:58:10;;;;;;;5.57;3.60;;;;;;;11.16;66.00;99252.00;5034679;28;20021;-83
2021/01/23 08:00:36;;;;;;;5.13;4.05;;;;;;;11.38;64.93;99285.34;5034534;28;20036;-81
2021/01/23 08:03:02;;;;;;;4.32;3.25;;;;;;;11.84;65.35;99353.69;5017045;28;20052;-84
2021/01/23 08:05:59;;;;;;;6.07;3.47;;;;;;;11.37;65.58;99262.56;5034432;28;20025;-82
2021/01/23 08:08:34;;;;;;;5.22;3.80;;;;;;;11.89;65.36;99349.50;5001285;28;20128;-82
2021/01/23 08:11:01;;;;;;;3.72;3.38;;;;;;;11.91;65.41;99358.06;5034768;28;20218;-81
2021/01/23 08:13:28;;;;;;;5.53;3.83;;;;;;;11.95;64.84;99359.31;5034382;28;20017;-81
2021/01/23 08:16:14;;;;;;;4.88;3.70;;;;;;;11.99;64.83;99349.19;5016973;28;20421;-82
2021/01/23 08:18:42;;;;;;;5.18;3.97;;;;;;;12.09;64.91;99354.94;5034427;28;20517;-83
2021/01/23 08:21:34;;;;;;;5.95;4.50;;;;;;;12.13;64.85;99356.22;5020622;28;20109;-79
2021/01/23 08:24:00;;;;;;;8.88;4.40;;;;;;;11.84;64.67;99306.09;5035628;28;20410;-84
2021/01/23 08:26:40;;;;;;;7.63;4.65;;;;;;;11.90;65.41;99302.72;5038192;28;20037;-83
2021/01/23 08:29:06;;;;;;;6.68;4.78;;;;;;;11.91;64.88;99312.28;5020767;28;20025;-82
2021/01/23 08:31:31;;;;;;;7.53;4.45;;;;;;;12.23;65.23;99359.34;5038166;28;20022;-81
2021/01/23 08:33:57;;;;;;;7.90;3.97;;;;;;;12.11;65.29;99330.94;5038261;28;20021;-82
2021/01/23 08:36:25;;;;;;;6.10;4.32;;;;;;;12.31;65.21;99353.88;5020443;28;20503;-82
2021/01/23 08:39:02;;;;;;;10.18;4.25;;;;;;;11.92;64.91;99290.94;5020747;28;20116;-86
2021/01/23 08:41:28;;;;;;;5.30;3.53;;;;;;;12.31;65.14;99353.88;5037983;28;20121;-80
2021/01/23 08:43:54;;;;;;;4.50;3.25;;;;;;;12.34;65.20;99350.84;5037868;28;20113;-79
2021/01/23 08:46:19;;;;;;;6.13;3.30;;;;;;;12.39;64.52;99339.69;5037891;28;20026;-81
2021/01/23 08:48:45;;;;;;;7.05;4.45;;;;;;;12.46;64.70;99334.41;5020359;28;20056;-81
2021/01/23 08:51:10;;;;;;;5.15;3.40;;;;;;;12.52;64.23;99331.00;5037949;28;20087;-82
2021/01/23 08:53:36;;;;;;;5.45;3.22;;;;;;;12.48;63.95;99324.44;5038355;28;20336;-80
2021/01/23 08:56:01;;;;;;;3.95;3.00;;;;;;;12.54;64.14;99326.31;5030825;28;20026;-80
2021/01/23 08:58:27;;;;;;;5.95;2.70;;;;;;;12.56;63.50;99337.53;5023280;28;20025;-80
2021/01/23 09:00:52;;;;;;;5.45;3.33;;;;;;;12.46;63.54;99298.16;5032695;28;20029;-80
2021/01/23 09:03:17;;;;;;;4.05;2.60;;;;;;;12.46;63.19;99287.56;5030899;28;20029;-81
2021/01/23 09:05:43;;;;;;;5.30;2.75;;;;;;;12.64;63.79;99313.56;5018696;28;20026;-81
2021/01/23 09:08:09;;;;;;;3.83;2.60;;;;;;;12.52;63.56;99294.75;5029117;28;20395;-81
2021/01/23 09:10:34;;;;;;;6.85;2.70;;;;;;;12.63;63.58;99309.25;5019793;28;20022;-81
2021/01/23 09:12:59;;;;;;;8.65;2.92;;;;;;;12.70;63.25;99320.72;5032056;28;20025;-81
2021/01/23 09:15:25;;;;;;;5.65;2.42;;;;;;;12.59;63.16;99284.16;5037308;28;20032;-82
2021/01/23 09:17:51;;;;;;;2.88;2.58;;;;;;;12.12;62.45;99216.94;5019772;28;20431;-81
2021/01/23 09:20:16;;;;;;;5.78;2.38;;;;;;;12.52;62.40;99293.91;5033963;28;20052;-80
2021/01/23 09:22:42;;;;;;;8.02;2.78;;;;;;;12.58;62.39;99282.53;5000960;28;20022;-78
2021/01/23 09:25:08;;;;;;;6.15;2.53;;;;;;;12.73;61.97;99317.69;5013727;28;20072;-81
2021/01/23 09:27:33;;;;;;;4.18;2.67;;;;;;;12.67;62.15;99287.50;5035013;28;20032;-80
2021/01/23 09:29:59;;;;;;;5.25;2.72;;;;;;;12.49;61.59;99250.13;5035108;28;20021;-80
2021/01/23 09:32:24;;;;;;;4.30;2.20;;;;;;;12.54;61.79;99255.63;5033152;28;20095;-86
2021/01/23 09:34:50;;;;;;;3.28;2.00;;;;;;;12.91;60.99;99330.38;5022907;28;20029;-81
2021/01/23 09:37:15;;;;;;;4.93;2.50;;;;;;;12.94;61.30;99314.09;5029371;28;20036;-80
2021/01/23 09:39:41;;;;;;;6.45;2.95;;;;;;;12.96;60.99;99309.41;5022806;28;20021;-78
2021/01/23 09:42:06;;;;;;;6.25;3.05;;;;;;;12.96;60.88;99307.56;5034410;28;20033;-79
2021/01/23 09:44:32;;;;;;;4.32;2.10;;;;;;;12.97;61.02;99316.34;5014638;28;20148;-82
2021/01/23 09:46:57;;;;;;;4.75;2.72;;;;;;;12.33;60.64;99208.91;5015272;28;20037;-81
2021/01/23 09:49:24;;;;;;;3.88;2.30;;;;;;;12.92;60.41;99292.28;5030689;28;20060;-81
2021/01/23 09:51:50;;;;;;;4.93;2.65;;;;;;;13.06;60.16;99309.84;5035552;28;20025;-79
2021/01/23 09:54:16;;;;;;;9.48;4.55;;;;;;;12.91;60.11;99274.75;5036466;28;20032;-79
2021/01/23 09:56:41;;;;;;;5.63;2.88;;;;;;;13.02;60.73;99319.22;5035765;28;20025;-83
2021/01/23 09:59:07;;;;;;;6.10;2.75;;;;;;;12.77;60.41;99246.56;5036045;28;20036;-77
2021/01/23 10:01:32;;;;;;;5.05;2.95;;;;;;;13.07;61.02;99289.47;5036196;28;20040;-81
2021/01/23 10:03:58;;;;;;;6.35;2.95;;;;;;;13.09;61.04;99290.88;5035859;28;20033;-79
2021/01/23 10:06:23;;;;;;;8.40;3.85;;;;;;;13.11;61.33;99282.75;5025665;28;20483;-78
2021/01/23 10:08:49;;;;;;;8.57;4.57;;;;;;;13.10;61.39;99310.25;5035575;28;20049;-80
2021/01/23 10:11:15;;;;;;;11.15;5.68;;;;;;;13.10;61.15;99262.56;5033808;28;20444;-78
2021/01/23 10:13:40;;;;;;;10.57;5.20;;;;;;;12.88;61.64;99238.84;5034887;28;20041;-80
2021/01/23 10:16:06;;;;;;;6.95;3.63;;;;;;;13.14;61.54;99277.03;5036138;28;20167;-80
2021/01/23 10:18:35;;;;;;;5.07;2.53;;;;;;;12.08;60.90;99097.44;5036020;28;20041;-79
2021/01/23 10:21:05;;;;;;;6.97;2.83;;;;;;;12.22;61.13;99108.06;5033001;28;20431;-81
2021/01/23 10:23:31;;;;;;;7.38;3.45;;;;;;;12.42;61.31;99151.31;5041628;28;20030;-82
2021/01/23 10:25:56;;;;;;;9.73;3.55;;;;;;;13.13;60.84;99251.53;5017402;28;20037;-80
2021/01/23 10:28:22;;;;;;;7.70;2.75;;;;;;;13.13;60.96;99276.22;5024155;28;20017;-77
2021/01/23 10:30:48;;;;;;;3.40;1.80;;;;;;;12.99;60.45;99229.50;5017506;28;20420;-82
2021/01/23 10:33:13;;;;;;;8.73;1.92;;;;;;;13.12;60.02;99255.22;5012523;28;20079;-78
2021/01/23 10:35:38;;;;;;;5.78;1.90;;;;;;;13.09;59.78;99256.44;5029561;28;20439;-78
2021/01/23 10:38:04;;;;;;;5.45;1.90;;;;;;;12.99;59.25;99238.28;5019162;28;20127;-79
2021/01/23 10:40:29;;;;;;;9.07;3.60;;;;;;;12.27;59.24;99126.81;5028599;28;20041;-80
2021/01/23 10:42:55;;;;;;;9.00;3.30;;;;;;;13.09;59.32;99240.53;5012569;28;20112;-82
2021/01/23 10:45:20;;;;;;;6.22;2.38;;;;;;;13.14;58.49;99238.09;5034585;28;20138;-77
2021/01/23 10:47:46;;;;;;;5.93;2.40;;;;;;;13.04;58.62;99209.34;5025963;28;20049;-79
2021/01/23 10:50:11;;;;;;;7.53;3.45;;;;;;;12.53;58.37;99124.25;5037908;28;20037;-78
2021/01/23 10:52:37;;;;;;;5.57;2.90;;;;;;;12.32;57.86;99069.63;5035367;28;20033;-77
2021/01/23 10:55:03;;;;;;;9.98;3.30;;;;;;;13.21;57.82;99216.91;5035459;28;20124;-78
2021/01/23 10:57:29;;;;;;;7.57;4.15;;;;;;;13.23;58.16;99210.41;5035250;28;20037;-78
2021/01/23 10:59:54;;;;;;;8.77;3.90;;;;;;;13.34;57.17;99216.94;5032603;28;20036;-77
2021/01/23 11:02:20;;;;;;;6.47;2.97;;;;;;;12.78;57.30;99131.66;5035066;28;20037;-80
2021/01/23 11:04:45;;;;;;;6.13;2.42;;;;;;;13.34;57.04;99193.06;5035277;28;20051;-85
2021/01/23 11:07:10;;;;;;;7.63;3.88;;;;;;;13.42;56.64;99192.06;5030416;28;20029;-81
2021/01/23 11:09:36;;;;;;;6.70;3.10;;;;;;;13.34;56.20;99171.84;5035086;28;20033;-84
2021/01/23 11:12:01;;;;;;;8.88;3.08;;;;;;;13.53;56.62;99196.75;5035184;28;20092;-89
2021/01/23 11:14:26;;;;;;;8.65;3.80;;;;;;;13.55;56.37;99189.41;5027498;28;20078;-87
2021/01/23 11:16:52;;;;;;;7.15;2.55;;;;;;;13.36;56.06;99162.66;5037551;28;20031;-85
2021/01/23 11:19:17;;;;;;;6.18;2.40;;;;;;;13.05;56.25;99110.25;5027207;28;20033;-85
2021/01/23 11:21:43;;;;;;;8.38;3.33;;;;;;;13.14;56.14;99126.75;5016890;28;20072;-87
2021/01/23 11:24:09;;;;;;;6.47;2.67;;;;;;;13.51;55.84;99188.19;5025292;28;20083;-86
2021/01/23 11:26:34;;;;;;;6.55;2.15;;;;;;;13.37;55.33;99171.44;5034097;28;20034;-83
2021/01/23 11:29:00;;;;;;;8.55;2.38;;;;;;;13.07;55.17;99104.75;5019103;28;20534;-83
2021/01/23 11:31:26;;;;;;;6.03;2.63;;;;;;;13.43;55.34;99164.53;5034952;28;20068;-83
2021/01/23 11:33:51;;;;;;;21.05;14.27;;;;;;;12.99;55.54;99111.06;5017164;28;20033;-87
2021/01/23 11:36:18;;;;;;;7.35;2.67;;;;;;;13.26;55.24;99170.22;5017435;28;20037;-86
2021/01/23 11:38:44;;;;;;;7.75;2.53;;;;;;;12.58;55.17;99044.19;5034814;28;20025;-86
2021/01/23 11:41:09;;;;;;;7.05;3.10;;;;;;;13.32;55.25;99156.16;5017540;28;20089;-86